Terminal Aerodrome Forecast
Issued by NWS Cleveland, OH

Home | Current Version | Previous Version | Text Only | Print | Product List | Glossary Off
Versions: 1 2 3 4 5 6 7 8 9 10 11 12 13 14 15 16 17 18

661
FTUS41 KCLE 240520
TAFERI
TAF
KERI 240520Z 2406/2506 VRB03KT P6SM SKC
     FM241600 18010KT P6SM SCT050
     FM242000 20010KT P6SM SCT050 BKN250
     FM250200 20010KT P6SM VCTS BKN050CB OVC120=

USA.gov is the U.S. government's official web portal to all federal, state and local government web resources and services.